Time,TemperatureF,DewpointF,PressureIn,WindDirection,WindDirectionDegrees,WindSpeedMPH,WindSpeedGustMPH,Humidity,HourlyPrecipIn,Conditions,Clouds,dailyrainin,SoftwareType,DateUTC
2013-02-14 00:11:00,38.1,31.5,29.02,West,270,0.0,-999.0,77,-99.99,,,0.00,Acu-Link.com,2013-02-14 06:11:00,
2013-02-14 00:26:00,38.3,31.4,29.03,NNE,22,0.0,-999.0,76,-99.99,,,0.00,Acu-Link.com,2013-02-14 06:26:00,
2013-02-14 00:41:00,36.9,30.4,29.03,West,270,0.0,-999.0,77,-99.99,,,0.00,Acu-Link.com,2013-02-14 06:41:00,
2013-02-14 00:56:00,37.0,31.1,29.03,North,0,0.0,-999.0,79,-99.99,,,0.00,Acu-Link.com,2013-02-14 06:56:00,
2013-02-14 01:11:00,39.4,32.1,29.04,NNW,337,0.0,-999.0,75,-99.99,,,0.00,Acu-Link.com,2013-02-14 07:11:00,
2013-02-14 01:26:00,37.9,31.3,29.04,WNW,292,0.0,-999.0,77,-99.99,,,0.00,Acu-Link.com,2013-02-14 07:26:00,
2013-02-14 01:41:00,37.0,30.8,29.04,North,0,0.0,-999.0,78,-99.99,,,0.00,Acu-Link.com,2013-02-14 07:41:00,
2013-02-14 01:56:00,36.5,30.9,29.04,NW,315,0.0,-999.0,80,-99.99,,,0.00,Acu-Link.com,2013-02-14 07:56:00,
2013-02-14 02:11:00,37.2,31.6,29.04,WNW,292,0.0,-999.0,80,-99.99,,,0.00,Acu-Link.com,2013-02-14 08:11:00,
2013-02-14 02:27:00,37.6,31.7,29.04,NW,315,0.0,-999.0,79,-99.99,,,0.00,Acu-Link.com,2013-02-14 08:27:00,
2013-02-14 02:42:00,37.9,31.7,29.05,NNE,22,0.0,-999.0,78,-99.99,,,0.00,Acu-Link.com,2013-02-14 08:42:00,
2013-02-14 02:57:00,37.8,31.6,29.05,NW,315,0.0,-999.0,78,-99.99,,,0.00,Acu-Link.com,2013-02-14 08:57:00,
2013-02-14 03:15:00,37.6,31.4,29.05,NNE,22,0.0,-999.0,78,-99.99,,,0.00,Acu-Link.com,2013-02-14 09:15:00,
2013-02-14 03:30:00,37.2,31.3,29.05,NW,315,0.0,-999.0,79,-99.99,,,0.00,Acu-Link.com,2013-02-14 09:30:00,
2013-02-14 03:46:00,36.9,31.6,29.06,NW,315,0.0,-999.0,81,-99.99,,,0.00,Acu-Link.com,2013-02-14 09:46:00,
2013-02-14 04:01:00,36.3,31.3,29.06,NW,315,0.0,-999.0,82,-99.99,,,0.00,Acu-Link.com,2013-02-14 10:01:00,
2013-02-14 04:16:00,36.5,31.5,29.07,North,0,0.0,-999.0,82,-99.99,,,0.00,Acu-Link.com,2013-02-14 10:16:00,
2013-02-14 04:31:00,36.5,31.5,29.08,NNW,337,0.0,-999.0,82,-99.99,,,0.00,Acu-Link.com,2013-02-14 10:31:00,
2013-02-14 04:46:00,36.3,31.6,29.09,NNW,337,0.0,-999.0,83,-99.99,,,0.00,Acu-Link.com,2013-02-14 10:46:00,
2013-02-14 05:01:00,36.3,31.6,29.09,NW,315,0.0,-999.0,83,-99.99,,,0.00,Acu-Link.com,2013-02-14 11:01:00,
2013-02-14 05:16:00,36.3,31.3,29.10,NNE,22,0.0,-999.0,82,-99.99,,,0.00,Acu-Link.com,2013-02-14 11:16:00,
2013-02-14 05:32:00,36.3,31.0,29.10,NNW,337,0.0,-999.0,81,-99.99,,,0.00,Acu-Link.com,2013-02-14 11:32:00,
2013-02-14 05:47:00,36.1,30.8,29.11,WNW,292,0.0,-999.0,81,-99.99,,,0.00,Acu-Link.com,2013-02-14 11:47:00,
2013-02-14 06:02:00,36.0,30.7,29.12,NNW,337,0.0,-999.0,81,-99.99,,,0.00,Acu-Link.com,2013-02-14 12:02:00,
2013-02-14 06:17:00,35.8,30.9,29.12,NNE,22,0.0,-999.0,82,-99.99,,,0.00,Acu-Link.com,2013-02-14 12:17:00,
2013-02-14 06:32:00,35.8,30.6,29.13,NNW,337,0.0,-999.0,81,-99.99,,,0.00,Acu-Link.com,2013-02-14 12:32:00,
2013-02-14 06:47:00,34.5,29.6,29.15,NW,315,0.0,-999.0,82,-99.99,,,0.00,Acu-Link.com,2013-02-14 12:47:00,
2013-02-14 07:02:00,33.8,29.2,29.17,NNE,22,0.0,-999.0,83,-99.99,,,0.00,Acu-Link.com,2013-02-14 13:02:00,
2013-02-14 07:17:00,33.3,28.7,29.16,ESE,112,0.0,-999.0,83,-99.99,,,0.00,Acu-Link.com,2013-02-14 13:17:00,
2013-02-14 07:32:00,32.9,28.3,29.17,NNW,337,0.0,-999.0,83,-99.99,,,0.00,Acu-Link.com,2013-02-14 13:32:00,
2013-02-14 07:48:00,32.9,28.3,29.17,North,0,0.0,-999.0,83,-99.99,,,0.00,Acu-Link.com,2013-02-14 13:48:00,
2013-02-14 08:03:00,33.1,28.5,29.18,NNE,22,0.0,-999.0,83,-99.99,,,0.00,Acu-Link.com,2013-02-14 14:03:00,
2013-02-14 08:18:00,34.2,29.3,29.20,NW,315,0.0,-999.0,82,-99.99,,,0.00,Acu-Link.com,2013-02-14 14:18:00,
2013-02-14 08:33:00,34.3,29.1,29.21,NNW,337,0.0,-999.0,81,-99.99,,,0.00,Acu-Link.com,2013-02-14 14:33:00,
2013-02-14 08:48:00,34.5,29.3,29.22,SSW,202,0.0,-999.0,81,-99.99,,,0.00,Acu-Link.com,2013-02-14 14:48:00,
2013-02-14 09:03:00,34.3,29.1,29.23,NNW,337,0.0,-999.0,81,-99.99,,,0.00,Acu-Link.com,2013-02-14 15:03:00,
2013-02-14 09:18:00,34.3,29.1,29.23,NNW,337,0.0,-999.0,81,-99.99,,,0.00,Acu-Link.com,2013-02-14 15:18:00,
2013-02-14 09:33:00,34.3,29.1,29.23,SE,135,0.0,-999.0,81,-99.99,,,0.00,Acu-Link.com,2013-02-14 15:33:00,
2013-02-14 09:48:00,35.4,29.9,29.24,NW,315,0.0,-999.0,80,-99.99,,,0.00,Acu-Link.com,2013-02-14 15:48:00,
2013-02-14 10:04:00,36.7,30.2,29.23,WNW,292,0.0,-999.0,77,-99.99,,,0.00,Acu-Link.com,2013-02-14 16:04:00,
2013-02-14 10:19:00,37.2,30.3,29.23,NNW,337,0.0,-999.0,76,-99.99,,,0.00,Acu-Link.com,2013-02-14 16:19:00,
2013-02-14 10:34:00,38.3,31.1,29.23,North,0,0.0,-999.0,75,-99.99,,,0.00,Acu-Link.com,2013-02-14 16:34:00,
2013-02-14 10:49:00,39.2,31.3,29.24,NW,315,0.0,-999.0,73,-99.99,,,0.00,Acu-Link.com,2013-02-14 16:49:00,
2013-02-14 11:04:00,40.5,32.9,29.23,NNE,22,0.0,-999.0,74,-99.99,,,0.00,Acu-Link.com,2013-02-14 17:04:00,
2013-02-14 11:19:00,40.3,31.7,29.24,NNW,337,0.0,-999.0,71,-99.99,,,0.00,Acu-Link.com,2013-02-14 17:19:00,
2013-02-14 11:34:00,41.0,32.3,29.24,North,0,0.0,-999.0,71,-99.99,,,0.00,Acu-Link.com,2013-02-14 17:34:00,
2013-02-14 11:49:00,41.9,32.8,29.23,NNW,337,0.0,-999.0,70,-99.99,,,0.00,Acu-Link.com,2013-02-14 17:49:00,
2013-02-14 12:04:00,43.0,32.8,29.23,North,0,0.0,-999.0,67,-99.99,,,0.00,Acu-Link.com,2013-02-14 18:04:00,
2013-02-14 12:19:00,43.0,32.4,29.23,NW,315,0.0,-999.0,66,-99.99,,,0.00,Acu-Link.com,2013-02-14 18:19:00,
2013-02-14 12:35:00,43.5,32.9,29.23,NNW,337,0.0,-999.0,66,-99.99,,,0.00,Acu-Link.com,2013-02-14 18:35:00,
2013-02-14 12:50:00,43.3,32.7,29.23,North,0,0.0,-999.0,66,-99.99,,,0.00,Acu-Link.com,2013-02-14 18:50:00,
2013-02-14 13:05:00,42.4,31.9,29.23,NW,315,0.0,-999.0,66,-99.99,,,0.00,Acu-Link.com,2013-02-14 19:05:00,
2013-02-14 13:20:00,41.5,32.5,29.24,West,270,0.0,-999.0,70,-99.99,,,0.00,Acu-Link.com,2013-02-14 19:20:00,
2013-02-14 13:35:00,41.0,32.3,29.24,NNW,337,0.0,-999.0,71,-99.99,,,0.00,Acu-Link.com,2013-02-14 19:35:00,
2013-02-14 13:50:00,40.5,32.2,29.24,ESE,112,0.0,-999.0,72,-99.99,,,0.00,Acu-Link.com,2013-02-14 19:50:00,
2013-02-14 14:05:00,41.4,32.0,29.24,WNW,292,0.0,-999.0,69,-99.99,,,0.00,Acu-Link.com,2013-02-14 20:05:00,
2013-02-14 14:20:00,40.6,30.9,29.24,WNW,292,0.0,-999.0,68,-99.99,,,0.00,Acu-Link.com,2013-02-14 20:20:00,
2013-02-14 14:35:00,40.8,29.6,29.25,NW,315,0.0,-999.0,64,-99.99,,,0.00,Acu-Link.com,2013-02-14 20:35:00,
2013-02-14 14:51:00,40.8,28.4,29.26,North,0,0.0,-999.0,61,-99.99,,,0.00,Acu-Link.com,2013-02-14 20:51:00,
2013-02-14 15:06:00,40.8,28.0,29.26,NW,315,0.0,-999.0,60,-99.99,,,0.00,Acu-Link.com,2013-02-14 21:06:00,
2013-02-14 15:21:00,40.3,28.3,29.27,WNW,292,0.0,-999.0,62,-99.99,,,0.00,Acu-Link.com,2013-02-14 21:21:00,
2013-02-14 15:36:00,39.6,27.7,29.28,SW,225,0.0,-999.0,62,-99.99,,,0.00,Acu-Link.com,2013-02-14 21:36:00,
2013-02-14 15:51:00,38.7,27.6,29.28,West,270,0.0,-999.0,64,-99.99,,,0.00,Acu-Link.com,2013-02-14 21:51:00,
2013-02-14 16:06:00,39.2,28.1,29.29,NNW,337,0.0,-999.0,64,-99.99,,,0.00,Acu-Link.com,2013-02-14 22:06:00,
2013-02-14 16:21:00,40.8,28.4,29.29,North,0,0.0,-999.0,61,-99.99,,,0.00,Acu-Link.com,2013-02-14 22:21:00,
2013-02-14 16:36:00,40.1,27.7,29.30,North,0,0.0,-999.0,61,-99.99,,,0.00,Acu-Link.com,2013-02-14 22:36:00,
2013-02-14 16:51:00,38.7,30.5,29.31,NW,315,0.0,-999.0,72,-99.99,,,0.00,Acu-Link.com,2013-02-14 22:51:00,
2013-02-14 17:07:00,38.1,29.2,29.32,WNW,292,0.0,-999.0,70,-99.99,,,0.00,Acu-Link.com,2013-02-14 23:07:00,
2013-02-14 17:22:00,37.4,29.6,29.32,NNE,22,0.0,-999.0,73,-99.99,,,0.00,Acu-Link.com,2013-02-14 23:22:00,
2013-02-14 17:37:00,36.7,29.5,29.33,NW,315,0.0,-999.0,75,-99.99,,,0.00,Acu-Link.com,2013-02-14 23:37:00,
2013-02-14 17:52:00,36.5,30.0,29.33,NNE,22,0.0,-999.0,77,-99.99,,,0.00,Acu-Link.com,2013-02-14 23:52:00,
2013-02-14 18:07:00,35.1,29.6,29.34,WNW,292,0.0,-999.0,80,-99.99,,,0.00,Acu-Link.com,2013-02-15 00:07:00,
2013-02-14 18:22:00,34.0,28.8,29.34,NNE,22,0.0,-999.0,81,-99.99,,,0.00,Acu-Link.com,2013-02-15 00:22:00,
2013-02-14 18:37:00,33.1,28.2,29.35,North,0,0.0,-999.0,82,-99.99,,,0.00,Acu-Link.com,2013-02-15 00:37:00,
2013-02-14 18:52:00,32.7,27.8,29.36,NNE,22,0.0,-999.0,82,-99.99,,,0.00,Acu-Link.com,2013-02-15 00:52:00,
2013-02-14 19:07:00,32.0,26.8,29.37,North,0,0.0,-999.0,81,-99.99,,,0.00,Acu-Link.com,2013-02-15 01:07:00,
2013-02-14 19:23:00,31.6,26.7,29.38,NNW,337,0.0,-999.0,82,-99.99,,,0.00,Acu-Link.com,2013-02-15 01:23:00,
2013-02-14 19:38:00,31.6,26.5,29.38,NNE,22,0.0,-999.0,81,-99.99,,,0.00,Acu-Link.com,2013-02-15 01:38:00,
2013-02-14 19:53:00,31.6,26.5,29.38,NNW,337,0.0,-999.0,81,-99.99,,,0.00,Acu-Link.com,2013-02-15 01:53:00,
2013-02-14 20:08:00,30.9,24.6,29.38,NW,315,0.0,-999.0,77,-99.99,,,0.00,Acu-Link.com,2013-02-15 02:08:00,
2013-02-14 20:23:00,30.2,23.9,29.39,NNW,337,0.0,-999.0,77,-99.99,,,0.00,Acu-Link.com,2013-02-15 02:23:00,
2013-02-14 20:38:00,29.5,23.8,29.39,NE,45,0.0,-999.0,79,-99.99,,,0.00,Acu-Link.com,2013-02-15 02:38:00,
2013-02-14 20:53:00,29.1,24.0,29.40,NNE,22,0.0,-999.0,81,-99.99,,,0.00,Acu-Link.com,2013-02-15 02:53:00,
2013-02-14 21:08:00,28.6,23.5,29.41,NNW,337,0.0,-999.0,81,-99.99,,,0.00,Acu-Link.com,2013-02-15 03:08:00,
2013-02-14 21:23:00,28.0,23.2,29.41,NE,45,0.0,-999.0,82,-99.99,,,0.00,Acu-Link.com,2013-02-15 03:23:00,
2013-02-14 21:39:00,27.9,23.4,29.42,NNE,22,0.0,-999.0,83,-99.99,,,0.00,Acu-Link.com,2013-02-15 03:39:00,
2013-02-14 21:54:00,27.1,22.3,29.43,NNW,337,0.0,-999.0,82,-99.99,,,0.00,Acu-Link.com,2013-02-15 03:54:00,
2013-02-14 22:09:00,26.2,19.1,29.44,North,0,0.0,-999.0,74,-99.99,,,0.00,Acu-Link.com,2013-02-15 04:09:00,
2013-02-14 22:24:00,25.5,17.8,29.45,NE,45,0.0,-999.0,72,-99.99,,,0.00,Acu-Link.com,2013-02-15 04:24:00,
2013-02-14 22:39:00,24.8,18.0,29.45,NNW,337,0.0,-999.0,75,-99.99,,,0.00,Acu-Link.com,2013-02-15 04:39:00,
2013-02-14 22:54:00,24.3,18.1,29.46,NW,315,0.0,-999.0,77,-99.99,,,0.00,Acu-Link.com,2013-02-15 04:54:00,
2013-02-14 23:09:00,23.9,17.8,29.46,NNW,337,0.0,-999.0,77,-99.99,,,0.00,Acu-Link.com,2013-02-15 05:09:00,
2013-02-14 23:24:00,23.4,17.3,29.47,East,90,0.0,-999.0,77,-99.99,,,0.00,Acu-Link.com,2013-02-15 05:24:00,
2013-02-14 23:39:00,23.0,16.9,29.47,NNE,22,0.0,-999.0,77,-99.99,,,0.00,Acu-Link.com,2013-02-15 05:39:00,
2013-02-14 23:54:00,22.8,15.2,29.48,NNE,22,0.0,-999.0,72,-99.99,,,0.00,Acu-Link.com,2013-02-15 05:54:00,